createdAt,value
2022-12-31T00:01:25.814Z,4.13
2022-12-31T00:03:52.867Z,4.45
2022-12-31T00:06:23.844Z,4.72
2022-12-31T00:08:51.858Z,4.18
2022-12-31T00:11:18.777Z,4.35
2022-12-31T00:13:46.768Z,4.75
2022-12-31T00:16:19.841Z,4.38
2022-12-31T00:18:48.499Z,4.40
2022-12-31T00:21:16.174Z,4.50
2022-12-31T00:23:43.359Z,4.55
2022-12-31T00:26:12.382Z,4.47
2022-12-31T00:28:39.650Z,4.82
2022-12-31T00:31:12.621Z,4.43
2022-12-31T00:33:40.205Z,4.07
2022-12-31T00:36:13.229Z,4.45
2022-12-31T00:38:41.315Z,4.25
2022-12-31T00:41:08.138Z,4.28
2022-12-31T00:43:35.436Z,3.90
2022-12-31T00:46:02.859Z,4.25
2022-12-31T00:48:29.505Z,3.75
2022-12-31T00:50:56.876Z,4.18
2022-12-31T00:53:25.579Z,4.10
2022-12-31T00:55:52.170Z,4.45
2022-12-31T00:58:18.841Z,4.13
2022-12-31T01:00:45.493Z,4.13
2022-12-31T01:03:12.190Z,4.28
2022-12-31T01:05:38.783Z,4.43
2022-12-31T01:08:06.075Z,4.32
2022-12-31T01:10:50.958Z,4.47
2022-12-31T01:13:17.750Z,3.72
2022-12-31T01:15:44.501Z,3.88
2022-12-31T01:18:11.610Z,4.50
2022-12-31T01:20:41.355Z,3.70
2022-12-31T01:23:09.041Z,3.97
2022-12-31T01:25:40.169Z,3.60
2022-12-31T01:28:06.760Z,3.15
2022-12-31T01:30:33.271Z,3.50
2022-12-31T01:33:00.181Z,3.80
2022-12-31T01:35:26.730Z,4.18
2022-12-31T01:37:53.240Z,3.83
2022-12-31T01:40:19.976Z,3.72
2022-12-31T01:42:54.446Z,3.85
2022-12-31T01:45:21.231Z,3.80
2022-12-31T01:47:51.735Z,3.53
2022-12-31T01:50:23.242Z,5.30
2022-12-31T01:52:56.887Z,3.92
2022-12-31T01:55:26.118Z,3.80
2022-12-31T01:58:01.379Z,4.00
2022-12-31T02:03:19.602Z,3.80
2022-12-31T02:05:55.028Z,4.03
2022-12-31T02:08:21.998Z,3.83
2022-12-31T02:10:48.528Z,3.95
2022-12-31T02:13:15.705Z,3.85
2022-12-31T02:16:09.579Z,3.90
2022-12-31T02:18:50.386Z,3.80
2022-12-31T02:21:33.518Z,3.70
2022-12-31T02:24:35.818Z,3.90
2022-12-31T02:27:34.346Z,3.72
2022-12-31T02:30:17.201Z,4.18
2022-12-31T02:33:22.227Z,3.67
2022-12-31T02:36:24.071Z,3.53
2022-12-31T02:38:51.712Z,3.20
2022-12-31T02:41:38.968Z,3.63
2022-12-31T02:44:22.486Z,3.80
2022-12-31T02:47:13.501Z,3.88
2022-12-31T02:50:23.058Z,3.90
2022-12-31T02:53:14.383Z,3.40
2022-12-31T02:55:52.425Z,3.80
2022-12-31T02:58:56.823Z,3.83
2022-12-31T03:01:52.280Z,4.05
2022-12-31T03:04:32.707Z,4.13
2022-12-31T03:07:12.527Z,3.70
2022-12-31T03:09:39.342Z,3.83
2022-12-31T03:12:28.451Z,4.10
2022-12-31T03:14:55.065Z,4.28
2022-12-31T03:17:21.811Z,4.20
2022-12-31T03:20:06.921Z,4.07
2022-12-31T03:22:37.497Z,4.10
2022-12-31T03:25:29.259Z,4.22
2022-12-31T03:27:56.057Z,4.22
2022-12-31T03:30:24.066Z,4.32
2022-12-31T03:32:51.404Z,5.43
2022-12-31T03:35:20.649Z,6.00
2022-12-31T03:37:48.702Z,4.57
2022-12-31T03:40:16.523Z,4.50
2022-12-31T03:42:43.142Z,4.50
2022-12-31T03:45:11.489Z,3.47
2022-12-31T03:47:38.385Z,4.20
2022-12-31T03:50:06.632Z,4.70
2022-12-31T03:52:33.219Z,4.38
2022-12-31T03:54:59.751Z,4.20
2022-12-31T03:57:26.380Z,4.15
2022-12-31T03:59:52.938Z,4.72
2022-12-31T04:02:24.668Z,4.22
2022-12-31T04:04:54.897Z,4.63
2022-12-31T04:07:21.616Z,4.05
2022-12-31T04:09:48.183Z,4.63
2022-12-31T04:12:15.104Z,5.05
2022-12-31T04:14:41.667Z,4.63
2022-12-31T04:17:08.337Z,4.47
2022-12-31T04:19:34.926Z,4.43
2022-12-31T04:22:01.814Z,4.40
2022-12-31T04:24:28.461Z,4.70
2022-12-31T04:26:55.044Z,4.15
2022-12-31T04:29:21.607Z,4.82
2022-12-31T04:31:48.190Z,4.72
2022-12-31T04:34:14.917Z,4.55
2022-12-31T04:36:41.474Z,4.30
2022-12-31T04:39:08.313Z,4.25
2022-12-31T04:41:34.925Z,5.05
2022-12-31T04:44:01.649Z,5.65
2022-12-31T04:46:30.826Z,4.80
2022-12-31T04:48:58.196Z,5.00
2022-12-31T04:51:26.253Z,5.35
2022-12-31T04:53:53.037Z,5.25
2022-12-31T04:56:19.811Z,6.07
2022-12-31T04:58:46.656Z,4.75
2022-12-31T05:01:13.864Z,5.20
2022-12-31T05:03:41.016Z,4.75
2022-12-31T05:06:12.322Z,4.90
2022-12-31T05:08:38.948Z,4.70
2022-12-31T05:11:05.833Z,4.75
2022-12-31T05:13:33.497Z,4.93
2022-12-31T05:16:01.485Z,4.50
2022-12-31T05:18:28.728Z,4.13
2022-12-31T05:20:55.387Z,4.68
2022-12-31T05:23:22.912Z,5.15
2022-12-31T05:25:49.516Z,5.40
2022-12-31T05:28:16.496Z,5.43
2022-12-31T05:30:43.714Z,4.90
2022-12-31T05:33:10.519Z,4.68
2022-12-31T05:35:37.138Z,6.70
2022-12-31T05:38:03.828Z,7.32
2022-12-31T05:40:30.584Z,7.15
2022-12-31T05:42:57.097Z,6.20
2022-12-31T05:45:30.150Z,6.70
2022-12-31T05:47:57.831Z,7.32
2022-12-31T05:50:24.496Z,6.72
2022-12-31T05:52:51.063Z,6.65
2022-12-31T05:55:17.868Z,6.85
2022-12-31T05:57:44.399Z,6.55
2022-12-31T06:00:11.804Z,6.97
2022-12-31T06:02:38.476Z,6.85
2022-12-31T06:05:05.632Z,7.05
2022-12-31T06:07:32.316Z,7.00
2022-12-31T06:09:58.988Z,6.32
2022-12-31T06:12:25.610Z,5.40
2022-12-31T06:14:52.134Z,5.55
2022-12-31T06:17:19.133Z,5.93
2022-12-31T06:19:46.944Z,6.03
2022-12-31T06:22:13.551Z,5.63
2022-12-31T06:24:40.208Z,5.90
2022-12-31T06:27:06.749Z,5.60
2022-12-31T06:29:33.236Z,5.60
2022-12-31T06:31:59.887Z,6.10
2022-12-31T06:34:26.416Z,5.68
2022-12-31T06:36:52.907Z,6.03
2022-12-31T06:39:19.492Z,5.88
2022-12-31T06:41:46.057Z,5.50
2022-12-31T06:44:12.710Z,6.13
2022-12-31T06:46:39.567Z,4.78
2022-12-31T06:49:06.200Z,5.22
2022-12-31T06:51:32.743Z,5.05
2022-12-31T06:53:59.425Z,4.45
2022-12-31T06:56:33.892Z,4.78
2022-12-31T06:59:01.460Z,5.05
2022-12-31T07:01:51.255Z,5.82
2022-12-31T07:04:48.495Z,4.65
2022-12-31T07:07:35.373Z,4.97
2022-12-31T07:10:08.998Z,5.20
2022-12-31T07:12:58.936Z,4.10
2022-12-31T07:16:05.792Z,3.80
2022-12-31T07:18:54.975Z,4.00
2022-12-31T07:21:33.077Z,4.00
2022-12-31T07:23:59.936Z,4.70
2022-12-31T07:26:57.049Z,4.85
2022-12-31T07:29:48.398Z,4.43
2022-12-31T07:32:35.969Z,4.60
2022-12-31T07:35:37.188Z,4.25
2022-12-31T07:38:26.508Z,4.43
2022-12-31T07:41:15.755Z,4.22
2022-12-31T07:44:22.299Z,4.25
2022-12-31T07:46:57.619Z,5.18
2022-12-31T07:49:25.998Z,5.22
2022-12-31T07:51:53.446Z,5.50
2022-12-31T07:54:20.864Z,4.53
2022-12-31T07:56:48.017Z,3.65
2022-12-31T07:59:32.418Z,4.30
2022-12-31T08:02:06.220Z,4.50
2022-12-31T08:04:40.719Z,3.53
2022-12-31T08:07:30.085Z,2.97
2022-12-31T08:10:15.620Z,3.15
2022-12-31T08:12:47.251Z,2.63
2022-12-31T08:15:15.460Z,3.30
2022-12-31T08:17:42.844Z,2.92
2022-12-31T08:20:14.795Z,2.90
2022-12-31T08:23:00.143Z,2.65
2022-12-31T08:25:38.357Z,2.58
2022-12-31T08:28:14.001Z,2.42
2022-12-31T08:31:00.440Z,2.80
2022-12-31T08:33:37.983Z,2.90
2022-12-31T08:36:13.599Z,2.88
2022-12-31T08:39:07.945Z,3.20
2022-12-31T08:41:42.515Z,3.10
2022-12-31T08:44:57.382Z,3.50
2022-12-31T08:47:40.419Z,2.85
2022-12-31T08:50:12.937Z,2.60
2022-12-31T08:52:39.722Z,2.55
2022-12-31T08:55:06.843Z,1.98
2022-12-31T08:57:46.324Z,2.40
2022-12-31T09:00:18.235Z,2.33
2022-12-31T09:02:50.378Z,2.47
2022-12-31T09:05:25.408Z,2.45
2022-12-31T09:08:22.565Z,2.10
2022-12-31T09:11:10.443Z,2.25
2022-12-31T09:13:45.839Z,2.22
2022-12-31T09:16:28.441Z,2.22
2022-12-31T09:18:57.535Z,2.47
2022-12-31T09:21:24.137Z,2.55
2022-12-31T09:23:50.930Z,2.70
2022-12-31T09:26:43.033Z,2.30
2022-12-31T09:29:09.533Z,2.15
2022-12-31T09:31:45.043Z,2.10
2022-12-31T09:34:30.629Z,2.25
2022-12-31T09:37:02.548Z,2.15
2022-12-31T09:39:58.371Z,2.33
2022-12-31T09:45:34.679Z,1.83
2022-12-31T09:48:26.723Z,1.90
2022-12-31T09:51:19.181Z,2.38
2022-12-31T09:54:06.371Z,1.75
2022-12-31T09:56:42.371Z,1.55
2022-12-31T09:59:43.841Z,1.67
2022-12-31T10:02:29.608Z,1.65
2022-12-31T10:05:03.980Z,1.90
2022-12-31T10:07:40.397Z,1.58
2022-12-31T10:10:16.657Z,1.65
2022-12-31T10:13:01.919Z,1.50
2022-12-31T10:15:41.439Z,1.67
2022-12-31T10:18:16.726Z,1.85
2022-12-31T10:21:02.272Z,1.63
2022-12-31T10:23:48.641Z,1.20
2022-12-31T10:26:32.079Z,1.50
2022-12-31T10:29:13.903Z,1.70
2022-12-31T10:32:04.497Z,1.27
2022-12-31T10:34:55.087Z,1.40
2022-12-31T10:37:30.008Z,1.30
2022-12-31T10:40:34.750Z,1.60
2022-12-31T10:43:26.692Z,1.20
2022-12-31T10:46:24.169Z,1.50
2022-12-31T10:49:16.443Z,1.30
2022-12-31T10:52:04.661Z,1.35
2022-12-31T10:54:43.699Z,1.50
2022-12-31T10:57:34.314Z,1.20
2022-12-31T11:00:12.914Z,1.48
2022-12-31T11:02:42.574Z,1.30
2022-12-31T11:05:47.109Z,1.13
2022-12-31T11:08:39.949Z,0.90
2022-12-31T11:11:34.235Z,1.45
2022-12-31T11:14:26.992Z,1.45
2022-12-31T11:17:01.123Z,1.27
2022-12-31T11:19:39.855Z,1.80
2022-12-31T11:22:25.043Z,1.42
2022-12-31T11:25:17.427Z,1.58
2022-12-31T11:28:08.997Z,1.55
2022-12-31T11:30:57.294Z,1.58
2022-12-31T11:33:50.574Z,1.38
2022-12-31T11:36:36.081Z,1.50
2022-12-31T11:39:33.427Z,1.40
2022-12-31T11:42:20.772Z,1.20
2022-12-31T11:44:51.651Z,1.70
2022-12-31T11:47:44.719Z,1.33
2022-12-31T11:50:38.899Z,1.33
2022-12-31T11:53:33.542Z,1.40
2022-12-31T11:56:20.133Z,1.33
2022-12-31T11:58:52.953Z,1.10
2022-12-31T12:01:32.524Z,1.50
2022-12-31T12:03:59.861Z,1.58
2022-12-31T12:06:32.411Z,0.90
2022-12-31T12:09:05.568Z,1.40
2022-12-31T12:11:35.760Z,0.95
2022-12-31T12:14:19.098Z,1.30
2022-12-31T12:16:45.883Z,1.20
2022-12-31T12:19:18.443Z,1.25
2022-12-31T12:21:49.092Z,0.98
2022-12-31T12:26:57.504Z,1.58
2022-12-31T12:29:28.781Z,3.35
2022-12-31T12:32:19.578Z,1.30
2022-12-31T12:34:49.818Z,1.10
2022-12-31T12:40:03.472Z,1.00
2022-12-31T12:42:30.603Z,1.08
2022-12-31T12:45:18.940Z,1.10
2022-12-31T12:47:48.159Z,0.98
2022-12-31T12:50:24.847Z,1.08
2022-12-31T12:53:22.100Z,0.98
2022-12-31T12:56:02.936Z,1.13
2022-12-31T12:59:09.074Z,1.00
2022-12-31T13:01:52.614Z,1.10
2022-12-31T13:04:43.458Z,1.00
2022-12-31T13:07:36.779Z,1.10
2022-12-31T13:10:26.556Z,1.00
2022-12-31T13:13:25.937Z,0.90
2022-12-31T13:16:22.426Z,1.10
2022-12-31T13:19:09.256Z,0.95
2022-12-31T13:21:57.984Z,1.30
2022-12-31T13:24:51.788Z,1.00
2022-12-31T13:27:42.655Z,1.30
2022-12-31T13:30:40.284Z,1.10
2022-12-31T13:33:15.558Z,1.00
2022-12-31T13:35:48.102Z,1.10
2022-12-31T13:38:22.796Z,1.15
2022-12-31T13:40:51.959Z,1.02
2022-12-31T13:43:39.568Z,1.00
2022-12-31T13:46:19.196Z,1.20
2022-12-31T13:48:59.761Z,1.00
2022-12-31T13:51:41.916Z,1.20
2022-12-31T13:54:39.468Z,1.20
2022-12-31T13:57:18.966Z,1.02
2022-12-31T13:59:50.107Z,1.15
